sensor_id;sensor_type;location;lat;lon;timestamp;temperature;humidity
12152;DHT22;6139;51.274;7.128;2022-11-14T00:00:01;10.60;99.90
12152;DHT22;6139;51.274;7.128;2022-11-14T00:01:21;10.60;99.90
12152;DHT22;6139;51.274;7.128;2022-11-14T00:02:41;10.60;99.90
12152;DHT22;6139;51.274;7.128;2022-11-14T00:04:01;10.70;99.90
12152;DHT22;6139;51.274;7.128;2022-11-14T00:05:21;10.60;99.90
12152;DHT22;6139;51.274;7.128;2022-11-14T00:06:41;10.60;99.90
12152;DHT22;6139;51.274;7.128;2022-11-14T00:08:02;10.60;99.90
12152;DHT22;6139;51.274;7.128;2022-11-14T00:09:25;10.60;99.90
12152;DHT22;6139;51.274;7.128;2022-11-14T00:10:45;10.60;99.90
12152;DHT22;6139;51.274;7.128;2022-11-14T00:12:06;10.50;99.90
12152;DHT22;6139;51.274;7.128;2022-11-14T00:13:27;10.50;99.90
12152;DHT22;6139;51.274;7.128;2022-11-14T00:14:47;10.50;99.90
12152;DHT22;6139;51.274;7.128;2022-11-14T00:16:07;10.40;99.90
12152;DHT22;6139;51.274;7.128;2022-11-14T00:17:28;10.40;99.90
12152;DHT22;6139;51.274;7.128;2022-11-14T00:18:47;10.40;99.90
12152;DHT22;6139;51.274;7.128;2022-11-14T00:20:10;10.30;33.90
12152;DHT22;6139;51.274;7.128;2022-11-14T00:21:31;10.30;1.00
12152;DHT22;6139;51.274;7.128;2022-11-14T00:22:51;10.30;1.00
12152;DHT22;6139;51.274;7.128;2022-11-14T00:24:12;10.30;1.00
12152;DHT22;6139;51.274;7.128;2022-11-14T00:25:34;10.30;1.00
12152;DHT22;6139;51.274;7.128;2022-11-14T00:26:55;10.30;1.00
12152;DHT22;6139;51.274;7.128;2022-11-14T00:28:15;10.30;1.00
12152;DHT22;6139;51.274;7.128;2022-11-14T00:29:35;10.40;1.00
12152;DHT22;6139;51.274;7.128;2022-11-14T00:30:54;10.40;1.00
12152;DHT22;6139;51.274;7.128;2022-11-14T00:32:15;10.40;1.00
12152;DHT22;6139;51.274;7.128;2022-11-14T00:33:36;10.30;1.00
12152;DHT22;6139;51.274;7.128;2022-11-14T00:34:57;10.30;1.00
12152;DHT22;6139;51.274;7.128;2022-11-14T00:36:16;10.30;1.00
12152;DHT22;6139;51.274;7.128;2022-11-14T00:37:37;10.20;1.00
12152;DHT22;6139;51.274;7.128;2022-11-14T00:38:57;10.20;1.00
12152;DHT22;6139;51.274;7.128;2022-11-14T00:40:18;10.20;1.00
12152;DHT22;6139;51.274;7.128;2022-11-14T00:41:40;10.10;1.00
12152;DHT22;6139;51.274;7.128;2022-11-14T00:43:01;10.20;1.00
12152;DHT22;6139;51.274;7.128;2022-11-14T00:44:20;10.20;1.00
12152;DHT22;6139;51.274;7.128;2022-11-14T00:45:42;10.20;1.00
12152;DHT22;6139;51.274;7.128;2022-11-14T00:47:01;10.20;1.00
12152;DHT22;6139;51.274;7.128;2022-11-14T00:48:22;10.20;1.00
12152;DHT22;6139;51.274;7.128;2022-11-14T00:49:41;10.20;1.00
12152;DHT22;6139;51.274;7.128;2022-11-14T00:51:02;10.30;1.00
12152;DHT22;6139;51.274;7.128;2022-11-14T00:52:22;10.30;1.00
12152;DHT22;6139;51.274;7.128;2022-11-14T00:53:42;10.30;1.00
12152;DHT22;6139;51.274;7.128;2022-11-14T00:55:04;10.30;1.00
12152;DHT22;6139;51.274;7.128;2022-11-14T00:56:24;10.20;1.00
12152;DHT22;6139;51.274;7.128;2022-11-14T00:57:46;10.20;1.00
12152;DHT22;6139;51.274;7.128;2022-11-14T00:59:05;10.20;1.00
12152;DHT22;6139;51.274;7.128;2022-11-14T01:00:26;10.20;1.00
12152;DHT22;6139;51.274;7.128;2022-11-14T01:01:46;10.20;1.00
12152;DHT22;6139;51.274;7.128;2022-11-14T01:03:07;10.20;1.00
12152;DHT22;6139;51.274;7.128;2022-11-14T01:04:26;10.10;1.00
12152;DHT22;6139;51.274;7.128;2022-11-14T01:05:48;10.10;1.00
12152;DHT22;6139;51.274;7.128;2022-11-14T01:07:08;10.00;1.00
12152;DHT22;6139;51.274;7.128;2022-11-14T01:08:29;10.00;1.00
12152;DHT22;6139;51.274;7.128;2022-11-14T01:09:49;10.00;1.00
12152;DHT22;6139;51.274;7.128;2022-11-14T01:11:11;10.00;1.00
12152;DHT22;6139;51.274;7.128;2022-11-14T01:12:32;10.00;1.00
12152;DHT22;6139;51.274;7.128;2022-11-14T01:13:54;9.90;1.00
12152;DHT22;6139;51.274;7.128;2022-11-14T01:15:14;9.90;1.00
12152;DHT22;6139;51.274;7.128;2022-11-14T01:16:34;9.90;1.00
12152;DHT22;6139;51.274;7.128;2022-11-14T01:17:55;9.90;1.00
12152;DHT22;6139;51.274;7.128;2022-11-14T01:19:16;9.90;1.00
12152;DHT22;6139;51.274;7.128;2022-11-14T01:20:37;9.90;1.00
12152;DHT22;6139;51.274;7.128;2022-11-14T01:21:57;9.90;1.00
12152;DHT22;6139;51.274;7.128;2022-11-14T01:23:18;10.00;1.00
12152;DHT22;6139;51.274;7.128;2022-11-14T01:24:38;9.90;1.00
12152;DHT22;6139;51.274;7.128;2022-11-14T01:26:01;9.90;1.00
12152;DHT22;6139;51.274;7.128;2022-11-14T01:27:22;10.00;1.00
12152;DHT22;6139;51.274;7.128;2022-11-14T01:28:42;10.00;1.00
12152;DHT22;6139;51.274;7.128;2022-11-14T01:30:05;10.00;1.00
12152;DHT22;6139;51.274;7.128;2022-11-14T01:31:25;10.00;1.00
12152;DHT22;6139;51.274;7.128;2022-11-14T01:32:46;10.00;1.00
12152;DHT22;6139;51.274;7.128;2022-11-14T01:34:05;10.10;1.00
12152;DHT22;6139;51.274;7.128;2022-11-14T01:35:26;10.10;1.00
12152;DHT22;6139;51.274;7.128;2022-11-14T01:36:46;10.10;1.00
12152;DHT22;6139;51.274;7.128;2022-11-14T01:38:06;10.10;1.00
12152;DHT22;6139;51.274;7.128;2022-11-14T01:39:26;10.10;1.00
12152;DHT22;6139;51.274;7.128;2022-11-14T01:40:46;10.10;1.00
12152;DHT22;6139;51.274;7.128;2022-11-14T01:42:07;10.10;1.00
12152;DHT22;6139;51.274;7.128;2022-11-14T01:43:30;10.20;1.00
12152;DHT22;6139;51.274;7.128;2022-11-14T01:44:51;10.20;1.00
12152;DHT22;6139;51.274;7.128;2022-11-14T01:46:14;10.10;1.00
12152;DHT22;6139;51.274;7.128;2022-11-14T01:47:36;10.20;1.00
12152;DHT22;6139;51.274;7.128;2022-11-14T01:49:00;10.10;1.00
12152;DHT22;6139;51.274;7.128;2022-11-14T01:50:21;10.10;1.00
12152;DHT22;6139;51.274;7.128;2022-11-14T01:51:43;10.10;1.00
12152;DHT22;6139;51.274;7.128;2022-11-14T01:53:04;10.10;1.00
12152;DHT22;6139;51.274;7.128;2022-11-14T01:54:32;10.10;1.00
12152;DHT22;6139;51.274;7.128;2022-11-14T01:55:56;10.10;1.00
12152;DHT22;6139;51.274;7.128;2022-11-14T01:57:20;10.10;1.00
12152;DHT22;6139;51.274;7.128;2022-11-14T01:58:44;10.00;1.00
12152;DHT22;6139;51.274;7.128;2022-11-14T02:00:07;9.90;1.00
12152;DHT22;6139;51.274;7.128;2022-11-14T02:01:33;9.90;1.00
12152;DHT22;6139;51.274;7.128;2022-11-14T02:02:54;9.90;1.00
12152;DHT22;6139;51.274;7.128;2022-11-14T02:04:17;9.80;1.00
12152;DHT22;6139;51.274;7.128;2022-11-14T02:05:40;9.70;1.00
12152;DHT22;6139;51.274;7.128;2022-11-14T02:07:02;9.70;1.00
12152;DHT22;6139;51.274;7.128;2022-11-14T02:08:23;9.70;1.00
12152;DHT22;6139;51.274;7.128;2022-11-14T02:09:45;9.60;1.00
12152;DHT22;6139;51.274;7.128;2022-11-14T02:11:09;9.60;1.00
12152;DHT22;6139;51.274;7.128;2022-11-14T02:12:29;9.60;1.00
12152;DHT22;6139;51.274;7.128;2022-11-14T02:13:50;9.50;1.00
12152;DHT22;6139;51.274;7.128;2022-11-14T02:15:10;9.50;1.00
12152;DHT22;6139;51.274;7.128;2022-11-14T02:16:32;9.50;1.00
12152;DHT22;6139;51.274;7.128;2022-11-14T02:17:53;9.40;1.00
12152;DHT22;6139;51.274;7.128;2022-11-14T02:19:14;9.40;1.00
12152;DHT22;6139;51.274;7.128;2022-11-14T02:20:38;9.40;1.00
12152;DHT22;6139;51.274;7.128;2022-11-14T02:22:01;9.40;1.00
12152;DHT22;6139;51.274;7.128;2022-11-14T02:23:25;9.40;1.00
12152;DHT22;6139;51.274;7.128;2022-11-14T02:24:45;9.40;1.00
12152;DHT22;6139;51.274;7.128;2022-11-14T02:26:05;9.40;1.00
12152;DHT22;6139;51.274;7.128;2022-11-14T02:27:26;9.40;1.00
12152;DHT22;6139;51.274;7.128;2022-11-14T02:28:46;9.50;1.00
12152;DHT22;6139;51.274;7.128;2022-11-14T02:30:09;9.50;1.00
12152;DHT22;6139;51.274;7.128;2022-11-14T02:31:30;9.50;1.00
12152;DHT22;6139;51.274;7.128;2022-11-14T02:32:51;9.50;1.00
12152;DHT22;6139;51.274;7.128;2022-11-14T02:34:12;9.50;1.00
12152;DHT22;6139;51.274;7.128;2022-11-14T02:35:36;9.50;1.00
12152;DHT22;6139;51.274;7.128;2022-11-14T02:36:56;9.50;1.00
12152;DHT22;6139;51.274;7.128;2022-11-14T02:38:17;9.60;1.00
12152;DHT22;6139;51.274;7.128;2022-11-14T02:39:36;9.50;1.00
12152;DHT22;6139;51.274;7.128;2022-11-14T02:40:58;9.60;1.00
12152;DHT22;6139;51.274;7.128;2022-11-14T02:42:18;9.50;1.00
12152;DHT22;6139;51.274;7.128;2022-11-14T02:43:38;9.50;1.00
12152;DHT22;6139;51.274;7.128;2022-11-14T02:44:58;9.50;1.00
12152;DHT22;6139;51.274;7.128;2022-11-14T02:46:18;9.50;1.00
12152;DHT22;6139;51.274;7.128;2022-11-14T02:47:38;9.50;1.00
12152;DHT22;6139;51.274;7.128;2022-11-14T02:48:57;9.50;1.00
12152;DHT22;6139;51.274;7.128;2022-11-14T02:50:18;9.40;1.00
12152;DHT22;6139;51.274;7.128;2022-11-14T02:51:39;9.40;1.00
12152;DHT22;6139;51.274;7.128;2022-11-14T02:53:00;9.40;1.00
12152;DHT22;6139;51.274;7.128;2022-11-14T02:54:20;9.40;1.00
12152;DHT22;6139;51.274;7.128;2022-11-14T02:55:40;9.40;1.00
12152;DHT22;6139;51.274;7.128;2022-11-14T02:57:01;9.40;1.00
12152;DHT22;6139;51.274;7.128;2022-11-14T02:58:21;9.40;1.00
12152;DHT22;6139;51.274;7.128;2022-11-14T02:59:40;9.40;1.00
12152;DHT22;6139;51.274;7.128;2022-11-14T03:01:01;9.30;1.00
12152;DHT22;6139;51.274;7.128;2022-11-14T03:02:22;9.30;1.00
12152;DHT22;6139;51.274;7.128;2022-11-14T03:03:41;9.30;1.00
12152;DHT22;6139;51.274;7.128;2022-11-14T03:05:02;9.30;1.00
12152;DHT22;6139;51.274;7.128;2022-11-14T03:06:22;9.20;1.00
12152;DHT22;6139;51.274;7.128;2022-11-14T03:07:44;9.20;1.00
12152;DHT22;6139;51.274;7.128;2022-11-14T03:09:04;9.20;1.00
12152;DHT22;6139;51.274;7.128;2022-11-14T03:10:24;9.20;1.00
12152;DHT22;6139;51.274;7.128;2022-11-14T03:11:44;9.20;1.00
12152;DHT22;6139;51.274;7.128;2022-11-14T03:13:05;9.20;1.00
12152;DHT22;6139;51.274;7.128;2022-11-14T03:14:26;9.10;1.00
12152;DHT22;6139;51.274;7.128;2022-11-14T03:15:46;9.10;1.00
12152;DHT22;6139;51.274;7.128;2022-11-14T03:17:06;9.10;1.00
12152;DHT22;6139;51.274;7.128;2022-11-14T03:18:27;9.10;1.00
12152;DHT22;6139;51.274;7.128;2022-11-14T03:19:46;9.10;1.00
12152;DHT22;6139;51.274;7.128;2022-11-14T03:21:07;9.10;1.00
12152;DHT22;6139;51.274;7.128;2022-11-14T03:22:27;9.10;1.00
12152;DHT22;6139;51.274;7.128;2022-11-14T03:23:49;9.10;1.00
12152;DHT22;6139;51.274;7.128;2022-11-14T03:25:09;9.10;1.00
12152;DHT22;6139;51.274;7.128;2022-11-14T03:26:29;9.10;1.00
12152;DHT22;6139;51.274;7.128;2022-11-14T03:27:49;9.10;1.00
12152;DHT22;6139;51.274;7.128;2022-11-14T03:29:10;9.00;1.00
12152;DHT22;6139;51.274;7.128;2022-11-14T03:30:29;9.00;1.00
12152;DHT22;6139;51.274;7.128;2022-11-14T03:31:49;9.00;1.00
12152;DHT22;6139;51.274;7.128;2022-11-14T03:33:10;9.00;1.00
12152;DHT22;6139;51.274;7.128;2022-11-14T03:34:30;8.90;1.00
12152;DHT22;6139;51.274;7.128;2022-11-14T03:35:52;8.90;1.00
12152;DHT22;6139;51.274;7.128;2022-11-14T03:37:12;8.90;1.00
12152;DHT22;6139;51.274;7.128;2022-11-14T03:38:33;8.90;1.00
12152;DHT22;6139;51.274;7.128;2022-11-14T03:39:54;8.90;1.00
12152;DHT22;6139;51.274;7.128;2022-11-14T03:41:14;8.80;1.00
12152;DHT22;6139;51.274;7.128;2022-11-14T03:42:35;8.80;1.00
12152;DHT22;6139;51.274;7.128;2022-11-14T03:43:55;8.80;1.00
12152;DHT22;6139;51.274;7.128;2022-11-14T03:45:16;8.80;1.00
12152;DHT22;6139;51.274;7.128;2022-11-14T03:46:36;8.70;1.00
12152;DHT22;6139;51.274;7.128;2022-11-14T03:47:57;8.70;1.00
12152;DHT22;6139;51.274;7.128;2022-11-14T03:49:18;8.70;1.00
12152;DHT22;6139;51.274;7.128;2022-11-14T03:50:39;8.70;1.00
12152;DHT22;6139;51.274;7.128;2022-11-14T03:51:58;8.70;1.00
12152;DHT22;6139;51.274;7.128;2022-11-14T03:53:19;8.70;1.00
12152;DHT22;6139;51.274;7.128;2022-11-14T03:54:39;8.60;1.00
12152;DHT22;6139;51.274;7.128;2022-11-14T03:56:01;8.60;1.00
12152;DHT22;6139;51.274;7.128;2022-11-14T03:57:20;8.50;1.00
12152;DHT22;6139;51.274;7.128;2022-11-14T03:58:40;8.50;1.00
12152;DHT22;6139;51.274;7.128;2022-11-14T04:00:00;8.50;1.00
12152;DHT22;6139;51.274;7.128;2022-11-14T04:01:20;8.50;1.00
12152;DHT22;6139;51.274;7.128;2022-11-14T04:02:41;8.50;1.00
12152;DHT22;6139;51.274;7.128;2022-11-14T04:04:02;8.50;1.00
12152;DHT22;6139;51.274;7.128;2022-11-14T04:05:23;8.50;1.00
12152;DHT22;6139;51.274;7.128;2022-11-14T04:06:43;8.50;1.00
12152;DHT22;6139;51.274;7.128;2022-11-14T04:08:04;8.50;1.00
12152;DHT22;6139;51.274;7.128;2022-11-14T04:09:24;8.50;1.00
12152;DHT22;6139;51.274;7.128;2022-11-14T04:10:46;8.50;1.00
12152;DHT22;6139;51.274;7.128;2022-11-14T04:12:07;8.50;1.00
12152;DHT22;6139;51.274;7.128;2022-11-14T04:13:28;8.50;1.00
12152;DHT22;6139;51.274;7.128;2022-11-14T04:14:47;8.50;1.00
12152;DHT22;6139;51.274;7.128;2022-11-14T04:16:08;8.50;1.00
12152;DHT22;6139;51.274;7.128;2022-11-14T04:17:27;8.50;1.00
12152;DHT22;6139;51.274;7.128;2022-11-14T04:18:48;8.50;1.00
12152;DHT22;6139;51.274;7.128;2022-11-14T04:20:08;8.50;1.00
12152;DHT22;6139;51.274;7.128;2022-11-14T04:21:28;8.50;1.00
12152;DHT22;6139;51.274;7.128;2022-11-14T04:22:49;8.50;1.00
12152;DHT22;6139;51.274;7.128;2022-11-14T04:24:09;8.50;1.00
12152;DHT22;6139;51.274;7.128;2022-11-14T04:25:29;8.40;1.00
12152;DHT22;6139;51.274;7.128;2022-11-14T04:26:49;8.40;1.00
12152;DHT22;6139;51.274;7.128;2022-11-14T04:28:11;8.40;1.00
12152;DHT22;6139;51.274;7.128;2022-11-14T04:29:31;8.40;2.60
12152;DHT22;6139;51.274;7.128;2022-11-14T04:30:52;8.40;6.30
12152;DHT22;6139;51.274;7.128;2022-11-14T04:32:13;8.30;3.10
12152;DHT22;6139;51.274;7.128;2022-11-14T04:33:34;8.30;8.10
12152;DHT22;6139;51.274;7.128;2022-11-14T04:34:53;8.30;8.00
12152;DHT22;6139;51.274;7.128;2022-11-14T04:36:14;8.30;7.40
12152;DHT22;6139;51.274;7.128;2022-11-14T04:37:33;8.30;9.50
12152;DHT22;6139;51.274;7.128;2022-11-14T04:38:56;8.20;12.00
12152;DHT22;6139;51.274;7.128;2022-11-14T04:40:17;8.20;12.20
12152;DHT22;6139;51.274;7.128;2022-11-14T04:41:38;8.20;11.30
12152;DHT22;6139;51.274;7.128;2022-11-14T04:42:59;8.20;14.30
12152;DHT22;6139;51.274;7.128;2022-11-14T04:44:20;8.20;19.20
12152;DHT22;6139;51.274;7.128;2022-11-14T04:45:40;8.20;22.90
12152;DHT22;6139;51.274;7.128;2022-11-14T04:47:01;8.20;20.30
12152;DHT22;6139;51.274;7.128;2022-11-14T04:48:22;8.20;19.10
12152;DHT22;6139;51.274;7.128;2022-11-14T04:49:42;8.20;21.40
12152;DHT22;6139;51.274;7.128;2022-11-14T04:51:01;8.20;18.40
12152;DHT22;6139;51.274;7.128;2022-11-14T04:52:22;8.20;19.70
12152;DHT22;6139;51.274;7.128;2022-11-14T04:53:43;8.20;23.70
12152;DHT22;6139;51.274;7.128;2022-11-14T04:55:04;8.20;28.00
12152;DHT22;6139;51.274;7.128;2022-11-14T04:56:24;8.20;29.20
12152;DHT22;6139;51.274;7.128;2022-11-14T04:57:45;8.20;30.20
12152;DHT22;6139;51.274;7.128;2022-11-14T04:59:05;8.10;28.80
12152;DHT22;6139;51.274;7.128;2022-11-14T05:00:27;8.20;30.90
12152;DHT22;6139;51.274;7.128;2022-11-14T05:01:48;8.20;30.50
12152;DHT22;6139;51.274;7.128;2022-11-14T05:03:07;8.20;29.20
12152;DHT22;6139;51.274;7.128;2022-11-14T05:04:28;8.10;31.50
12152;DHT22;6139;51.274;7.128;2022-11-14T05:05:49;8.20;36.40
12152;DHT22;6139;51.274;7.128;2022-11-14T05:07:10;8.20;37.50
12152;DHT22;6139;51.274;7.128;2022-11-14T05:08:29;8.10;37.30
12152;DHT22;6139;51.274;7.128;2022-11-14T05:09:50;8.20;39.30
12152;DHT22;6139;51.274;7.128;2022-11-14T05:11:13;8.10;43.30
12152;DHT22;6139;51.274;7.128;2022-11-14T05:12:34;8.10;50.10
12152;DHT22;6139;51.274;7.128;2022-11-14T05:13:54;8.10;52.50
12152;DHT22;6139;51.274;7.128;2022-11-14T05:15:15;8.10;50.30
12152;DHT22;6139;51.274;7.128;2022-11-14T05:16:36;8.10;47.60
12152;DHT22;6139;51.274;7.128;2022-11-14T05:17:56;8.10;47.90
12152;DHT22;6139;51.274;7.128;2022-11-14T05:19:16;8.10;51.20
12152;DHT22;6139;51.274;7.128;2022-11-14T05:20:37;8.10;49.20
12152;DHT22;6139;51.274;7.128;2022-11-14T05:21:57;8.10;54.90
12152;DHT22;6139;51.274;7.128;2022-11-14T05:23:20;8.10;56.60
12152;DHT22;6139;51.274;7.128;2022-11-14T05:24:40;8.10;57.90
12152;DHT22;6139;51.274;7.128;2022-11-14T05:26:01;8.10;57.50
12152;DHT22;6139;51.274;7.128;2022-11-14T05:27:21;8.10;59.00
12152;DHT22;6139;51.274;7.128;2022-11-14T05:28:42;8.00;59.50
12152;DHT22;6139;51.274;7.128;2022-11-14T05:30:03;8.00;58.80
12152;DHT22;6139;51.274;7.128;2022-11-14T05:31:23;8.10;58.70
12152;DHT22;6139;51.274;7.128;2022-11-14T05:32:45;8.00;59.80
12152;DHT22;6139;51.274;7.128;2022-11-14T05:34:06;8.00;59.70
12152;DHT22;6139;51.274;7.128;2022-11-14T05:35:27;8.10;58.40
12152;DHT22;6139;51.274;7.128;2022-11-14T05:36:47;8.10;60.20
12152;DHT22;6139;51.274;7.128;2022-11-14T05:38:08;8.10;59.50
12152;DHT22;6139;51.274;7.128;2022-11-14T05:39:29;8.00;62.10
12152;DHT22;6139;51.274;7.128;2022-11-14T05:40:49;8.00;63.80
12152;DHT22;6139;51.274;7.128;2022-11-14T05:42:10;8.00;62.30
12152;DHT22;6139;51.274;7.128;2022-11-14T05:43:31;8.00;65.40
12152;DHT22;6139;51.274;7.128;2022-11-14T05:44:50;8.00;63.70
12152;DHT22;6139;51.274;7.128;2022-11-14T05:46:13;8.00;63.50
12152;DHT22;6139;51.274;7.128;2022-11-14T05:47:33;8.00;63.70
12152;DHT22;6139;51.274;7.128;2022-11-14T05:48:54;8.00;67.20
12152;DHT22;6139;51.274;7.128;2022-11-14T05:50:15;8.00;69.60
12152;DHT22;6139;51.274;7.128;2022-11-14T05:51:36;8.00;71.10
12152;DHT22;6139;51.274;7.128;2022-11-14T05:52:56;8.00;74.70
12152;DHT22;6139;51.274;7.128;2022-11-14T05:54:16;8.00;73.30
12152;DHT22;6139;51.274;7.128;2022-11-14T05:55:36;7.90;1.00
12152;DHT22;6139;51.274;7.128;2022-11-14T05:56:57;7.90;78.40
12152;DHT22;6139;51.274;7.128;2022-11-14T05:58:18;7.90;80.80
12152;DHT22;6139;51.274;7.128;2022-11-14T05:59:38;7.90;84.40
12152;DHT22;6139;51.274;7.128;2022-11-14T06:01:03;7.90;86.10
12152;DHT22;6139;51.274;7.128;2022-11-14T06:02:23;7.90;84.10
12152;DHT22;6139;51.274;7.128;2022-11-14T06:03:45;7.80;87.20
12152;DHT22;6139;51.274;7.128;2022-11-14T06:05:07;7.80;86.90
12152;DHT22;6139;51.274;7.128;2022-11-14T06:06:27;7.80;91.00
12152;DHT22;6139;51.274;7.128;2022-11-14T06:07:54;7.80;92.30
12152;DHT22;6139;51.274;7.128;2022-11-14T06:09:14;7.80;91.20
12152;DHT22;6139;51.274;7.128;2022-11-14T06:10:35;7.80;92.10
12152;DHT22;6139;51.274;7.128;2022-11-14T06:11:55;7.80;93.10
12152;DHT22;6139;51.274;7.128;2022-11-14T06:13:16;7.70;94.50
12152;DHT22;6139;51.274;7.128;2022-11-14T06:14:35;7.70;94.70
12152;DHT22;6139;51.274;7.128;2022-11-14T06:15:57;7.70;95.30
12152;DHT22;6139;51.274;7.128;2022-11-14T06:17:17;7.70;95.20
12152;DHT22;6139;51.274;7.128;2022-11-14T06:18:38;7.70;97.90
12152;DHT22;6139;51.274;7.128;2022-11-14T06:19:59;7.70;98.60
12152;DHT22;6139;51.274;7.128;2022-11-14T06:21:22;7.70;99.80
12152;DHT22;6139;51.274;7.128;2022-11-14T06:22:43;7.60;99.50
12152;DHT22;6139;51.274;7.128;2022-11-14T06:24:04;7.60;99.90
12152;DHT22;6139;51.274;7.128;2022-11-14T06:25:25;7.60;99.70
12152;DHT22;6139;51.274;7.128;2022-11-14T06:26:45;7.60;99.70
12152;DHT22;6139;51.274;7.128;2022-11-14T06:28:05;7.60;99.90
12152;DHT22;6139;51.274;7.128;2022-11-14T06:29:26;7.60;99.90
12152;DHT22;6139;51.274;7.128;2022-11-14T06:30:46;7.60;99.90
12152;DHT22;6139;51.274;7.128;2022-11-14T06:32:07;7.60;99.90
12152;DHT22;6139;51.274;7.128;2022-11-14T06:33:28;7.60;99.90
12152;DHT22;6139;51.274;7.128;2022-11-14T06:34:48;7.50;99.90
12152;DHT22;6139;51.274;7.128;2022-11-14T06:36:09;7.50;99.90
12152;DHT22;6139;51.274;7.128;2022-11-14T06:37:30;7.50;99.90
12152;DHT22;6139;51.274;7.128;2022-11-14T06:38:51;7.50;99.90
12152;DHT22;6139;51.274;7.128;2022-11-14T06:40:11;7.50;99.90
12152;DHT22;6139;51.274;7.128;2022-11-14T06:41:31;7.50;99.90
12152;DHT22;6139;51.274;7.128;2022-11-14T06:42:54;7.50;99.90
12152;DHT22;6139;51.274;7.128;2022-11-14T06:44:15;7.50;99.90
12152;DHT22;6139;51.274;7.128;2022-11-14T06:45:36;7.40;99.90
12152;DHT22;6139;51.274;7.128;2022-11-14T06:46:56;7.50;99.90
12152;DHT22;6139;51.274;7.128;2022-11-14T06:48:17;7.40;99.90
12152;DHT22;6139;51.274;7.128;2022-11-14T06:49:36;7.40;99.90
12152;DHT22;6139;51.274;7.128;2022-11-14T06:50:58;7.40;99.90
12152;DHT22;6139;51.274;7.128;2022-11-14T06:52:18;7.40;99.90
12152;DHT22;6139;51.274;7.128;2022-11-14T06:53:42;7.40;99.90
12152;DHT22;6139;51.274;7.128;2022-11-14T06:55:03;7.40;99.90
12152;DHT22;6139;51.274;7.128;2022-11-14T06:56:23;7.40;99.90
12152;DHT22;6139;51.274;7.128;2022-11-14T06:57:44;7.40;99.90
12152;DHT22;6139;51.274;7.128;2022-11-14T06:59:04;7.40;99.90
12152;DHT22;6139;51.274;7.128;2022-11-14T07:00:24;7.40;99.90
12152;DHT22;6139;51.274;7.128;2022-11-14T07:01:45;7.40;99.90
12152;DHT22;6139;51.274;7.128;2022-11-14T07:03:05;7.30;99.90
12152;DHT22;6139;51.274;7.128;2022-11-14T07:04:25;7.30;99.90
12152;DHT22;6139;51.274;7.128;2022-11-14T07:05:46;7.30;99.90
12152;DHT22;6139;51.274;7.128;2022-11-14T07:07:07;7.30;99.90
12152;DHT22;6139;51.274;7.128;2022-11-14T07:08:27;7.30;99.90
12152;DHT22;6139;51.274;7.128;2022-11-14T07:09:49;7.30;99.90
12152;DHT22;6139;51.274;7.128;2022-11-14T07:11:10;7.30;99.90
12152;DHT22;6139;51.274;7.128;2022-11-14T07:12:40;7.30;99.90
12152;DHT22;6139;51.274;7.128;2022-11-14T07:14:02;7.30;99.90
12152;DHT22;6139;51.274;7.128;2022-11-14T07:15:23;7.20;99.90
12152;DHT22;6139;51.274;7.128;2022-11-14T07:16:44;7.20;99.90
12152;DHT22;6139;51.274;7.128;2022-11-14T07:18:05;7.30;99.90
12152;DHT22;6139;51.274;7.128;2022-11-14T07:19:25;7.20;99.90
12152;DHT22;6139;51.274;7.128;2022-11-14T07:20:46;7.20;99.90
12152;DHT22;6139;51.274;7.128;2022-11-14T07:22:06;7.30;99.90
12152;DHT22;6139;51.274;7.128;2022-11-14T07:23:27;7.30;99.90
12152;DHT22;6139;51.274;7.128;2022-11-14T07:24:49;7.30;99.90
12152;DHT22;6139;51.274;7.128;2022-11-14T07:26:11;7.20;99.90
12152;DHT22;6139;51.274;7.128;2022-11-14T07:27:31;7.20;99.90
12152;DHT22;6139;51.274;7.128;2022-11-14T07:28:52;7.20;99.90
12152;DHT22;6139;51.274;7.128;2022-11-14T07:30:13;7.20;99.90
12152;DHT22;6139;51.274;7.128;2022-11-14T07:31:33;7.20;99.90
12152;DHT22;6139;51.274;7.128;2022-11-14T07:32:54;7.30;99.90
12152;DHT22;6139;51.274;7.128;2022-11-14T07:34:15;7.20;99.90
12152;DHT22;6139;51.274;7.128;2022-11-14T07:35:37;7.30;99.90
12152;DHT22;6139;51.274;7.128;2022-11-14T07:36:58;7.30;99.90
12152;DHT22;6139;51.274;7.128;2022-11-14T07:38:18;7.30;99.90
12152;DHT22;6139;51.274;7.128;2022-11-14T07:39:39;7.30;99.90
12152;DHT22;6139;51.274;7.128;2022-11-14T07:41:02;7.30;99.90
12152;DHT22;6139;51.274;7.128;2022-11-14T07:42:23;7.30;99.90
12152;DHT22;6139;51.274;7.128;2022-11-14T07:43:47;7.30;99.90
12152;DHT22;6139;51.274;7.128;2022-11-14T07:45:09;7.30;99.90
12152;DHT22;6139;51.274;7.128;2022-11-14T07:46:30;7.30;99.90
12152;DHT22;6139;51.274;7.128;2022-11-14T07:47:53;7.30;99.90
12152;DHT22;6139;51.274;7.128;2022-11-14T07:49:14;7.30;99.90
12152;DHT22;6139;51.274;7.128;2022-11-14T07:50:35;7.40;99.90
12152;DHT22;6139;51.274;7.128;2022-11-14T07:51:55;7.40;99.90
12152;DHT22;6139;51.274;7.128;2022-11-14T07:53:15;7.40;99.90
12152;DHT22;6139;51.274;7.128;2022-11-14T07:54:36;7.50;99.90
12152;DHT22;6139;51.274;7.128;2022-11-14T07:56:03;7.60;99.90
12152;DHT22;6139;51.274;7.128;2022-11-14T07:57:24;7.60;99.90
12152;DHT22;6139;51.274;7.128;2022-11-14T07:58:45;7.60;99.90
12152;DHT22;6139;51.274;7.128;2022-11-14T08:00:08;7.70;99.90
12152;DHT22;6139;51.274;7.128;2022-11-14T08:01:29;7.70;99.90
12152;DHT22;6139;51.274;7.128;2022-11-14T08:02:50;7.70;99.90
12152;DHT22;6139;51.274;7.128;2022-11-14T08:04:10;7.70;99.90
12152;DHT22;6139;51.274;7.128;2022-11-14T08:05:31;7.70;99.90
12152;DHT22;6139;51.274;7.128;2022-11-14T08:06:52;7.80;99.90
12152;DHT22;6139;51.274;7.128;2022-11-14T08:08:12;7.80;99.90
12152;DHT22;6139;51.274;7.128;2022-11-14T08:09:33;7.80;99.90
12152;DHT22;6139;51.274;7.128;2022-11-14T08:10:55;7.70;99.90
12152;DHT22;6139;51.274;7.128;2022-11-14T08:12:17;7.70;99.90
12152;DHT22;6139;51.274;7.128;2022-11-14T08:13:37;7.70;99.90
12152;DHT22;6139;51.274;7.128;2022-11-14T08:14:58;7.60;99.90
12152;DHT22;6139;51.274;7.128;2022-11-14T08:16:19;7.50;99.90
12152;DHT22;6139;51.274;7.128;2022-11-14T08:17:39;7.50;99.90
12152;DHT22;6139;51.274;7.128;2022-11-14T08:19:00;7.40;99.90
12152;DHT22;6139;51.274;7.128;2022-11-14T08:20:21;7.40;99.90
12152;DHT22;6139;51.274;7.128;2022-11-14T08:21:41;7.40;99.90
12152;DHT22;6139;51.274;7.128;2022-11-14T08:23:03;7.40;99.90
12152;DHT22;6139;51.274;7.128;2022-11-14T08:24:24;7.40;99.90
12152;DHT22;6139;51.274;7.128;2022-11-14T08:25:44;7.30;99.90
12152;DHT22;6139;51.274;7.128;2022-11-14T08:27:05;7.40;99.90
12152;DHT22;6139;51.274;7.128;2022-11-14T08:28:27;7.40;99.90
12152;DHT22;6139;51.274;7.128;2022-11-14T08:29:47;7.40;99.90
12152;DHT22;6139;51.274;7.128;2022-11-14T08:31:09;7.40;99.90
12152;DHT22;6139;51.274;7.128;2022-11-14T08:32:31;7.40;99.90
12152;DHT22;6139;51.274;7.128;2022-11-14T08:33:52;7.40;99.90
12152;DHT22;6139;51.274;7.128;2022-11-14T08:35:13;7.40;99.90
12152;DHT22;6139;51.274;7.128;2022-11-14T08:36:33;7.40;99.90
12152;DHT22;6139;51.274;7.128;2022-11-14T08:37:53;7.40;99.90
12152;DHT22;6139;51.274;7.128;2022-11-14T08:39:14;7.40;99.90
12152;DHT22;6139;51.274;7.128;2022-11-14T08:40:35;7.40;99.90
12152;DHT22;6139;51.274;7.128;2022-11-14T08:41:55;7.40;99.90
12152;DHT22;6139;51.274;7.128;2022-11-14T08:43:16;7.40;99.90
12152;DHT22;6139;51.274;7.128;2022-11-14T08:44:38;7.50;99.90
12152;DHT22;6139;51.274;7.128;2022-11-14T08:45:59;7.50;99.90
12152;DHT22;6139;51.274;7.128;2022-11-14T08:47:20;7.50;99.90
12152;DHT22;6139;51.274;7.128;2022-11-14T08:48:41;7.50;99.90
12152;DHT22;6139;51.274;7.128;2022-11-14T08:50:01;7.50;99.90